Search for airport 
image banner adimage banner adimage banner ad
image banner ad

KMER - Castle

Located in Atwater, United States

ICAO - MER, IATA -

Data provided by Airmate  

General information

Coordinates: N37°22'50" W120°34'5"
Elevation is 190 feet MSL.
Magnetic variation is 15° East
View others Airports in California

Operational data

Special qualification required
Current time UTC:
Current local time:
Weather
METAR: KMER 210955Z AUTO 32007KT 10SM CLR 20/10 A2979 RMK AO1
TAF: KMER 210520Z 2106/2206 32007KT P6SM SKC
View NOTAMs / SUP AIP / TFR affecting this airport [VIEW]
Communications frequencies: [VIEW]

Runways:

RWY identifierQFULength (ft)Width (ft)SurfaceLDA (ft)
13141°11802150OTHER
31321°11802150OTHER

Airport contact information

Address: Atwater United States

Satellite view of KMER